Time;durP1;ratioP1;P1;durP2;ratioP2;P2;SDS_P1;SDS_P2;PMS_P1;PMS_P2;Temp;Humidity;BMP_temperature;BMP_pressure;BME280_temperature;BME280_humidity;BME280_pressure;Samples;Min_cycle;Max_cycle;Signal;HPM_P1;HPM_P2
2022/07/17 00:01:10;;;;;;;1.65;0.85;;;;;;;;;;5029617;28;20482;-81
2022/07/17 00:03:56;;;;;;;2.22;0.80;;;;;;;;;;5031813;28;20049;-81
2022/07/17 00:06:42;;;;;;;5.63;0.98;;;;;;;;;;5044542;28;20033;-81
2022/07/17 00:09:27;;;;;;;1.45;0.80;;;;;;;;;;5030629;28;20510;-81
2022/07/17 00:12:13;;;;;;;2.58;0.50;;;;;;;;;;5031326;28;20408;-80
2022/07/17 00:14:59;;;;;;;1.52;0.45;;;;;;;;;;5031821;28;20048;-81
2022/07/17 00:17:44;;;;;;;3.55;0.70;;;;;;;;;;5044445;28;20076;-81
2022/07/17 00:20:30;;;;;;;1.92;0.50;;;;;;;;;;5043257;28;20041;-81
2022/07/17 00:23:17;;;;;;;2.95;0.63;;;;;;;;;;5044009;28;20042;-81
2022/07/17 00:26:03;;;;;;;3.10;0.57;;;;;;;;;;5044689;28;20045;-81
2022/07/17 00:28:48;;;;;;;3.03;0.80;;;;;;;;;;5043215;28;20113;-81
2022/07/17 00:31:34;;;;;;;2.40;0.70;;;;;;;;;;5044463;28;20072;-81
2022/07/17 00:34:20;;;;;;;4.13;0.75;;;;;;;;;;5043597;28;20045;-81
2022/07/17 00:37:05;;;;;;;2.05;0.47;;;;;;;;;;5044271;28;20038;-80
2022/07/17 00:39:51;;;;;;;2.67;0.65;;;;;;;;;;5043953;28;20038;-80
2022/07/17 00:42:40;;;;;;;1.48;0.60;;;;;;;;;;5030314;28;20048;-80
2022/07/17 00:45:26;;;;;;;2.53;0.80;;;;;;;;;;5030349;28;20419;-80
2022/07/17 00:48:12;;;;;;;1.70;0.47;;;;;;;;;;5030799;28;20046;-81
2022/07/17 00:50:59;;;;;;;1.80;0.80;;;;;;;;;;5044698;28;20453;-81
2022/07/17 00:53:45;;;;;;;5.70;0.95;;;;;;;;;;5031107;28;20048;-80
2022/07/17 00:56:30;;;;;;;3.17;0.70;;;;;;;;;;5045397;28;20026;-80
2022/07/17 00:59:16;;;;;;;2.17;0.60;;;;;;;;;;5030113;28;20049;-80
2022/07/17 01:02:07;;;;;;;2.67;0.75;;;;;;;;;;5031359;28;20050;-80
2022/07/17 01:04:52;;;;;;;2.67;0.90;;;;;;;;;;5016579;28;20144;-81
2022/07/17 01:07:38;;;;;;;2.28;0.80;;;;;;;;;;5045219;28;20038;-81
2022/07/17 01:10:24;;;;;;;2.33;0.70;;;;;;;;;;5028976;28;20050;-81
2022/07/17 01:13:09;;;;;;;3.47;0.77;;;;;;;;;;5043951;28;20576;-81
2022/07/17 01:15:55;;;;;;;2.25;0.60;;;;;;;;;;5045315;28;20106;-80
2022/07/17 01:18:41;;;;;;;2.88;0.95;;;;;;;;;;5044139;28;20038;-80
2022/07/17 01:21:39;;;;;;;2.22;0.82;;;;;;;;;;5031050;28;20443;-80
2022/07/17 01:24:25;;;;;;;2.00;0.68;;;;;;;;;;5031387;28;20034;-80
2022/07/17 01:27:11;;;;;;;1.50;0.70;;;;;;;;;;5030250;28;20040;-81
2022/07/17 01:29:57;;;;;;;2.03;0.60;;;;;;;;;;5045047;28;20040;-80
2022/07/17 01:32:43;;;;;;;2.50;1.23;;;;;;;;;;5028830;28;20041;-80
2022/07/17 01:35:28;;;;;;;4.68;0.80;;;;;;;;;;5048622;28;20083;-80
2022/07/17 01:38:14;;;;;;;3.38;0.90;;;;;;;;;;5047015;28;20526;-81
2022/07/17 01:41:00;;;;;;;2.47;1.05;;;;;;;;;;5048467;28;20045;-81
2022/07/17 01:43:46;;;;;;;2.33;1.00;;;;;;;;;;5048535;28;20037;-81
2022/07/17 01:46:31;;;;;;;3.40;0.95;;;;;;;;;;5033160;28;20503;-80
2022/07/17 01:49:17;;;;;;;1.88;0.63;;;;;;;;;;5032317;28;20045;-80
2022/07/17 01:52:03;;;;;;;2.58;0.85;;;;;;;;;;5020644;28;20041;-81
2022/07/17 01:54:49;;;;;;;3.97;0.98;;;;;;;;;;5047004;28;20042;-81
2022/07/17 01:57:35;;;;;;;2.35;0.95;;;;;;;;;;5033187;28;20415;-80
2022/07/17 02:00:23;;;;;;;2.65;1.10;;;;;;;;;;5032828;28;20076;-80
2022/07/17 02:03:09;;;;;;;2.65;0.90;;;;;;;;;;5046886;28;20076;-80
2022/07/17 02:05:55;;;;;;;3.03;1.30;;;;;;;;;;5047373;28;20504;-80
2022/07/17 02:08:41;;;;;;;2.63;1.23;;;;;;;;;;5045819;28;20037;-80
2022/07/17 02:11:26;;;;;;;5.20;1.30;;;;;;;;;;5047390;28;20115;-80
2022/07/17 02:14:12;;;;;;;3.13;1.20;;;;;;;;;;5032834;28;20045;-80
2022/07/17 02:16:58;;;;;;;1.90;0.70;;;;;;;;;;5031444;28;20116;-80
2022/07/17 02:19:44;;;;;;;3.17;1.10;;;;;;;;;;5047450;28;20054;-80
2022/07/17 02:22:29;;;;;;;2.72;1.10;;;;;;;;;;5047639;28;20041;-80
2022/07/17 02:25:15;;;;;;;2.28;1.05;;;;;;;;;;5047864;28;20053;-80
2022/07/17 02:28:01;;;;;;;2.05;0.88;;;;;;;;;;5047572;28;20033;-81
2022/07/17 02:30:47;;;;;;;1.73;0.80;;;;;;;;;;5032540;28;20076;-80
2022/07/17 02:33:32;;;;;;;3.20;1.40;;;;;;;;;;5047527;28;20045;-80
2022/07/17 02:36:18;;;;;;;2.80;1.08;;;;;;;;;;5047377;28;20037;-80
2022/07/17 02:39:04;;;;;;;3.35;1.08;;;;;;;;;;5033543;28;20049;-80
2022/07/17 02:41:50;;;;;;;4.00;1.15;;;;;;;;;;5032578;28;20033;-81
2022/07/17 02:44:35;;;;;;;2.85;0.95;;;;;;;;;;5032015;28;20047;-80
2022/07/17 02:47:25;;;;;;;2.30;1.13;;;;;;;;;;5045388;28;20037;-81
2022/07/17 02:50:12;;;;;;;3.63;1.60;;;;;;;;;;5045492;28;20041;-80
2022/07/17 02:52:57;;;;;;;2.38;0.95;;;;;;;;;;5047242;28;20037;-80
2022/07/17 02:55:43;;;;;;;2.50;1.23;;;;;;;;;;5045284;28;20512;-80
2022/07/17 02:58:29;;;;;;;1.65;0.80;;;;;;;;;;5045516;28;20052;-80
2022/07/17 03:01:18;;;;;;;2.42;0.85;;;;;;;;;;5045212;28;20076;-80
2022/07/17 03:04:03;;;;;;;2.33;0.85;;;;;;;;;;5045554;28;20033;-80
2022/07/17 03:06:49;;;;;;;2.60;0.80;;;;;;;;;;5046495;28;20041;-80
2022/07/17 03:09:35;;;;;;;2.70;1.08;;;;;;;;;;5045735;28;20053;-80
2022/07/17 03:12:21;;;;;;;3.13;0.90;;;;;;;;;;5045371;28;20037;-81
2022/07/17 03:15:07;;;;;;;1.98;1.00;;;;;;;;;;5031545;28;20090;-81
2022/07/17 03:17:52;;;;;;;4.05;1.73;;;;;;;;;;5045357;28;20110;-81
2022/07/17 03:20:38;;;;;;;4.03;1.17;;;;;;;;;;5030058;28;20122;-81
2022/07/17 03:23:24;;;;;;;1.75;0.80;;;;;;;;;;5044551;28;20095;-80
2022/07/17 03:26:10;;;;;;;2.63;0.93;;;;;;;;;;5044603;28;20029;-80
2022/07/17 03:28:55;;;;;;;1.77;0.70;;;;;;;;;;5045168;28;20037;-80
2022/07/17 03:31:42;;;;;;;1.60;0.82;;;;;;;;;;5044830;28;20049;-80
2022/07/17 03:34:28;;;;;;;2.67;0.90;;;;;;;;;;5030942;28;20053;-80
2022/07/17 03:37:14;;;;;;;2.08;0.85;;;;;;;;;;5044873;28;20037;-80
2022/07/17 03:40:00;;;;;;;2.78;1.00;;;;;;;;;;5046245;28;20064;-80
2022/07/17 03:42:45;;;;;;;1.85;0.65;;;;;;;;;;5031985;28;20033;-80
2022/07/17 03:45:31;;;;;;;2.08;1.05;;;;;;;;;;5046177;28;20091;-80
2022/07/17 03:48:17;;;;;;;3.03;1.15;;;;;;;;;;5043850;28;20115;-81
2022/07/17 03:51:03;;;;;;;2.40;0.80;;;;;;;;;;5044201;28;20049;-81
2022/07/17 03:53:48;;;;;;;1.55;0.70;;;;;;;;;;5046152;28;20116;-80
2022/07/17 03:56:34;;;;;;;2.08;1.05;;;;;;;;;;5031393;28;20041;-80
2022/07/17 03:59:20;;;;;;;1.77;0.85;;;;;;;;;;5031247;28;20034;-80
2022/07/17 04:02:06;;;;;;;1.92;0.77;;;;;;;;;;5029353;28;20045;-80
2022/07/17 04:04:51;;;;;;;1.77;0.68;;;;;;;;;;5045403;28;20037;-80
2022/07/17 04:07:38;;;;;;;2.13;0.60;;;;;;;;;;5045461;28;20045;-80
2022/07/17 04:10:23;;;;;;;1.92;0.80;;;;;;;;;;5017412;28;20046;-80
2022/07/17 04:13:09;;;;;;;2.65;0.68;;;;;;;;;;5045683;28;20072;-80
2022/07/17 04:15:59;;;;;;;2.25;0.80;;;;;;;;;;5030066;28;20036;-80
2022/07/17 04:18:45;;;;;;;2.42;0.80;;;;;;;;;;5030734;28;20478;-80
2022/07/17 04:21:31;;;;;;;2.47;0.80;;;;;;;;;;5046260;28;20041;-80
2022/07/17 04:24:16;;;;;;;3.17;1.23;;;;;;;;;;5045569;28;20049;-80
2022/07/17 04:27:02;;;;;;;1.15;0.50;;;;;;;;;;5045550;28;20048;-81
2022/07/17 04:29:48;;;;;;;1.23;0.57;;;;;;;;;;5030367;28;20057;-80
2022/07/17 04:32:34;;;;;;;3.33;1.08;;;;;;;;;;5045264;28;20420;-80
2022/07/17 04:35:20;;;;;;;3.28;1.05;;;;;;;;;;5030435;28;20511;-80
2022/07/17 04:38:09;;;;;;;1.10;0.43;;;;;;;;;;5031269;28;20033;-80
2022/07/17 04:40:54;;;;;;;1.38;0.63;;;;;;;;;;5030111;28;20050;-80
2022/07/17 04:43:40;;;;;;;1.92;0.70;;;;;;;;;;5043603;28;20124;-81
2022/07/17 04:46:26;;;;;;;2.05;0.85;;;;;;;;;;5045266;28;20042;-81
2022/07/17 04:49:12;;;;;;;2.35;0.70;;;;;;;;;;5028269;28;20041;-80
2022/07/17 04:51:58;;;;;;;2.22;1.02;;;;;;;;;;5030363;28;20041;-81
2022/07/17 04:54:45;;;;;;;1.65;0.60;;;;;;;;;;5043336;28;20136;-80
2022/07/17 04:57:31;;;;;;;1.10;0.60;;;;;;;;;;5045396;28;20096;-80
2022/07/17 05:00:16;;;;;;;1.77;0.80;;;;;;;;;;5043359;28;20041;-81
2022/07/17 05:03:02;;;;;;;4.05;0.95;;;;;;;;;;5045124;28;20049;-81
2022/07/17 05:05:48;;;;;;;1.42;0.65;;;;;;;;;;5045870;28;20042;-81
2022/07/17 05:08:34;;;;;;;1.27;0.60;;;;;;;;;;5047184;28;20080;-80
2022/07/17 05:11:20;;;;;;;1.98;1.00;;;;;;;;;;5033492;28;20129;-80
2022/07/17 05:14:06;;;;;;;2.15;0.75;;;;;;;;;;5034897;28;20037;-81
2022/07/17 05:16:52;;;;;;;1.77;0.90;;;;;;;;;;5048704;28;20076;-81
2022/07/17 05:19:37;;;;;;;1.38;0.80;;;;;;;;;;5048952;28;20041;-80
2022/07/17 05:22:23;;;;;;;1.92;0.85;;;;;;;;;;5033877;28;20099;-80
2022/07/17 05:25:09;;;;;;;2.38;0.80;;;;;;;;;;5048787;28;20038;-80
2022/07/17 05:27:54;;;;;;;1.05;0.60;;;;;;;;;;5032551;28;20045;-81
2022/07/17 05:30:40;;;;;;;2.97;0.75;;;;;;;;;;5034295;28;20500;-80
2022/07/17 05:33:26;;;;;;;2.38;0.80;;;;;;;;;;5047408;28;20412;-81
2022/07/17 05:36:12;;;;;;;2.05;0.57;;;;;;;;;;5033504;28;20034;-80
2022/07/17 05:38:57;;;;;;;1.85;0.45;;;;;;;;;;5034369;28;20056;-80
2022/07/17 05:41:43;;;;;;;2.67;0.90;;;;;;;;;;5047333;28;20084;-80
2022/07/17 05:44:29;;;;;;;1.73;0.82;;;;;;;;;;5033152;28;20100;-80
2022/07/17 05:47:14;;;;;;;1.60;0.57;;;;;;;;;;5048044;28;20029;-81
2022/07/17 05:50:00;;;;;;;2.97;0.80;;;;;;;;;;5046606;28;20053;-80
2022/07/17 05:52:46;;;;;;;1.77;0.68;;;;;;;;;;5033289;28;20083;-80
2022/07/17 05:55:32;;;;;;;2.47;0.70;;;;;;;;;;5033795;28;20506;-80
2022/07/17 05:58:17;;;;;;;1.23;0.52;;;;;;;;;;5034210;28;20499;-81
2022/07/17 06:01:03;;;;;;;2.03;0.60;;;;;;;;;;5034144;28;20427;-81
2022/07/17 06:03:49;;;;;;;2.65;0.80;;;;;;;;;;5032940;28;20053;-80
2022/07/17 06:06:34;;;;;;;1.33;0.60;;;;;;;;;;5033101;28;20099;-80
2022/07/17 06:09:20;;;;;;;1.55;0.57;;;;;;;;;;5046298;28;20045;-81
2022/07/17 06:12:06;;;;;;;1.35;0.73;;;;;;;;;;5047607;28;20033;-80
2022/07/17 06:14:52;;;;;;;1.20;0.60;;;;;;;;;;5047514;28;20080;-81
2022/07/17 06:17:38;;;;;;;0.77;0.30;;;;;;;;;;5047795;28;20034;-80
2022/07/17 06:20:23;;;;;;;1.25;0.70;;;;;;;;;;5045940;28;20041;-80
2022/07/17 06:23:09;;;;;;;1.13;0.50;;;;;;;;;;5032645;28;20037;-81
2022/07/17 06:25:55;;;;;;;1.30;0.60;;;;;;;;;;5033667;28;20419;-81
2022/07/17 06:28:40;;;;;;;1.73;0.70;;;;;;;;;;5047551;28;20041;-80
2022/07/17 06:31:29;;;;;;;1.65;0.73;;;;;;;;;;5047450;28;20088;-81
2022/07/17 06:34:15;;;;;;;1.15;0.60;;;;;;;;;;5047097;28;20049;-81
2022/07/17 06:37:00;;;;;;;2.63;0.63;;;;;;;;;;5032509;28;20042;-81
2022/07/17 06:39:46;;;;;;;1.70;0.60;;;;;;;;;;5033302;28;20045;-80
2022/07/17 06:42:32;;;;;;;2.00;0.52;;;;;;;;;;5046849;28;20033;-81
2022/07/17 06:45:18;;;;;;;2.10;0.70;;;;;;;;;;5032276;28;20423;-80
2022/07/17 06:48:04;;;;;;;2.42;0.80;;;;;;;;;;5030974;28;20037;-80
2022/07/17 06:50:50;;;;;;;1.60;0.57;;;;;;;;;;5032270;28;20525;-81
2022/07/17 06:53:35;;;;;;;2.75;0.82;;;;;;;;;;5047193;28;20030;-81
2022/07/17 06:56:21;;;;;;;1.55;0.60;;;;;;;;;;5046941;28;20052;-80
2022/07/17 06:59:07;;;;;;;1.55;0.85;;;;;;;;;;5047510;28;20041;-81
2022/07/17 07:01:52;;;;;;;0.88;0.35;;;;;;;;;;5032418;28;20111;-81
2022/07/17 07:04:38;;;;;;;1.95;0.65;;;;;;;;;;5045911;28;20052;-80
2022/07/17 07:07:25;;;;;;;1.38;0.60;;;;;;;;;;5046730;28;20045;-80
2022/07/17 07:10:11;;;;;;;1.33;0.40;;;;;;;;;;5047342;28;20045;-81
2022/07/17 07:12:56;;;;;;;1.42;0.65;;;;;;;;;;5031624;28;20095;-81
2022/07/17 07:15:42;;;;;;;0.85;0.40;;;;;;;;;;5045597;28;20095;-80
2022/07/17 07:18:30;;;;;;;1.48;0.40;;;;;;;;;;5045390;28;20033;-81
2022/07/17 07:21:18;;;;;;;1.23;0.50;;;;;;;;;;5045559;28;20048;-81
2022/07/17 07:24:04;;;;;;;1.42;0.60;;;;;;;;;;5032726;28;20117;-81
2022/07/17 07:26:50;;;;;;;0.98;0.50;;;;;;;;;;5030490;28;20384;-81
2022/07/17 07:29:36;;;;;;;1.35;0.40;;;;;;;;;;5030252;28;20427;-81
2022/07/17 07:32:24;;;;;;;1.55;0.60;;;;;;;;;;5045428;28;20048;-81
2022/07/17 07:35:10;;;;;;;2.67;0.70;;;;;;;;;;5030184;28;20504;-81
2022/07/17 07:37:56;;;;;;;1.48;0.43;;;;;;;;;;5032436;28;20038;-80
2022/07/17 07:40:42;;;;;;;1.38;0.50;;;;;;;;;;5031904;28;20401;-80
2022/07/17 07:43:27;;;;;;;1.88;0.60;;;;;;;;;;5045094;28;20110;-81
2022/07/17 07:46:13;;;;;;;1.27;0.38;;;;;;;;;;5030753;28;20060;-81
2022/07/17 07:48:59;;;;;;;1.20;0.50;;;;;;;;;;5045848;28;20038;-80
2022/07/17 07:51:45;;;;;;;1.58;0.70;;;;;;;;;;5043836;28;20111;-81
2022/07/17 07:54:31;;;;;;;1.63;0.60;;;;;;;;;;5044790;28;20411;-81
2022/07/17 07:57:16;;;;;;;1.85;0.70;;;;;;;;;;5045449;28;20474;-81
2022/07/17 08:00:06;;;;;;;1.63;0.40;;;;;;;;;;5031900;28;20049;-81
2022/07/17 08:02:52;;;;;;;0.93;0.40;;;;;;;;;;5030731;28;20095;-81
2022/07/17 08:05:37;;;;;;;1.08;0.35;;;;;;;;;;5031903;28;20095;-81
2022/07/17 08:08:23;;;;;;;1.45;0.55;;;;;;;;;;5044676;28;20069;-81
2022/07/17 08:11:10;;;;;;;1.02;0.30;;;;;;;;;;5044046;28;20096;-81
2022/07/17 08:13:55;;;;;;;1.33;0.45;;;;;;;;;;5045679;28;20492;-81
2022/07/17 08:16:41;;;;;;;1.30;0.40;;;;;;;;;;5045622;28;20040;-81
2022/07/17 08:19:27;;;;;;;1.63;0.73;;;;;;;;;;5045496;28;20604;-81
2022/07/17 08:22:13;;;;;;;3.20;0.63;;;;;;;;;;5030549;28;20040;-81
2022/07/17 08:24:59;;;;;;;2.08;0.40;;;;;;;;;;5044126;28;20037;-81
2022/07/17 08:27:45;;;;;;;1.88;0.57;;;;;;;;;;5030528;28;20041;-81
2022/07/17 08:30:34;;;;;;;2.13;0.43;;;;;;;;;;5045420;28;20131;-81
2022/07/17 08:33:20;;;;;;;2.75;0.43;;;;;;;;;;5030681;28;20416;-81
2022/07/17 08:36:06;;;;;;;0.80;0.28;;;;;;;;;;5031564;28;20033;-81
2022/07/17 08:38:52;;;;;;;1.13;0.40;;;;;;;;;;5043822;28;20033;-81
2022/07/17 08:41:38;;;;;;;1.42;0.50;;;;;;;;;;5043992;28;20042;-80
2022/07/17 08:44:24;;;;;;;1.17;0.50;;;;;;;;;;5035152;28;20044;-81
2022/07/17 08:47:13;;;;;;;2.05;0.55;;;;;;;;;;5049759;28;20033;-81
2022/07/17 08:49:59;;;;;;;0.82;0.38;;;;;;;;;;5046998;28;20033;-80
2022/07/17 08:52:44;;;;;;;2.03;0.50;;;;;;;;;;5048886;28;20049;-81
2022/07/17 08:55:30;;;;;;;1.02;0.40;;;;;;;;;;5049273;28;20034;-81
2022/07/17 08:58:19;;;;;;;1.63;0.43;;;;;;;;;;5034308;28;20069;-80
2022/07/17 09:01:05;;;;;;;3.50;0.85;;;;;;;;;;5047857;28;20049;-81
2022/07/17 09:03:57;;;;;;;1.83;0.68;;;;;;;;;;5049153;28;20488;-81
2022/07/17 09:06:43;;;;;;;1.20;0.55;;;;;;;;;;5048147;28;20131;-81
2022/07/17 09:09:29;;;;;;;2.05;0.43;;;;;;;;;;5048526;28;20103;-80
2022/07/17 09:12:15;;;;;;;1.20;0.60;;;;;;;;;;5047704;28;20507;-81
2022/07/17 09:15:14;;;;;;;1.00;0.20;;;;;;;;;;5048373;28;20411;-81
2022/07/17 09:18:00;;;;;;;1.33;0.50;;;;;;;;;;5034991;28;20460;-81
2022/07/17 09:20:46;;;;;;;2.13;0.47;;;;;;;;;;5032603;28;20042;-81
2022/07/17 09:23:32;;;;;;;0.80;0.15;;;;;;;;;;5048673;28;20092;-81
2022/07/17 09:26:18;;;;;;;1.58;0.50;;;;;;;;;;5034951;28;20499;-81
2022/07/17 09:29:04;;;;;;;1.13;0.40;;;;;;;;;;5048448;28;20455;-81
2022/07/17 09:31:51;;;;;;;1.83;0.50;;;;;;;;;;5045991;28;20046;-81
2022/07/17 09:34:45;;;;;;;0.88;0.30;;;;;;;;;;5032472;28;20134;-81
2022/07/17 09:37:31;;;;;;;0.88;0.40;;;;;;;;;;5046327;28;20041;-81
2022/07/17 09:43:21;;;;;;;2.28;0.85;;;;;;;;;;5033903;28;20505;-81
2022/07/17 09:46:07;;;;;;;1.75;0.47;;;;;;;;;;5047291;28;20466;-81
2022/07/17 09:48:58;;;;;;;1.77;0.50;;;;;;;;;;5033057;28;20053;-81
2022/07/17 09:51:43;;;;;;;1.35;0.40;;;;;;;;;;5047522;28;20048;-80
2022/07/17 09:54:29;;;;;;;1.67;0.30;;;;;;;;;;5032747;28;20037;-81
2022/07/17 09:57:15;;;;;;;0.93;0.30;;;;;;;;;;5047119;28;20034;-81
2022/07/17 10:00:06;;;;;;;1.33;0.90;;;;;;;;;;5046159;28;20053;-81
2022/07/17 10:02:52;;;;;;;1.02;0.30;;;;;;;;;;5046384;28;20053;-81
2022/07/17 10:05:38;;;;;;;3.17;0.30;;;;;;;;;;5032616;28;20132;-81
2022/07/17 10:08:23;;;;;;;1.98;0.47;;;;;;;;;;5046956;28;20060;-80
2022/07/17 10:11:09;;;;;;;1.25;0.32;;;;;;;;;;5032298;28;20048;-81
2022/07/17 10:13:56;;;;;;;2.83;0.55;;;;;;;;;;5047805;28;20041;-81
2022/07/17 10:16:44;;;;;;;1.45;0.38;;;;;;;;;;5032871;28;20052;-81
2022/07/17 10:19:31;;;;;;;1.98;0.65;;;;;;;;;;5031597;28;20091;-81
2022/07/17 10:22:17;;;;;;;1.70;0.85;;;;;;;;;;5047124;28;20472;-81
2022/07/17 10:25:04;;;;;;;1.95;0.50;;;;;;;;;;5047295;28;20076;-81
2022/07/17 10:27:55;;;;;;;1.40;0.30;;;;;;;;;;5032667;28;20037;-80
2022/07/17 10:30:42;;;;;;;1.33;0.30;;;;;;;;;;5046321;28;20554;-81
2022/07/17 10:33:27;;;;;;;1.02;0.30;;;;;;;;;;5046344;28;20054;-81
2022/07/17 10:36:13;;;;;;;1.38;0.38;;;;;;;;;;5046025;28;20033;-81
2022/07/17 10:38:59;;;;;;;1.75;0.30;;;;;;;;;;5047376;28;20034;-81
2022/07/17 10:41:55;;;;;;;1.52;0.28;;;;;;;;;;5047108;28;20037;-81
2022/07/17 10:44:41;;;;;;;3.70;0.70;;;;;;;;;;5032416;28;20037;-81
2022/07/17 10:47:27;;;;;;;1.67;0.75;;;;;;;;;;5044871;28;20045;-81
2022/07/17 10:50:13;;;;;;;1.55;0.60;;;;;;;;;;5045815;28;20095;-81
2022/07/17 10:53:12;;;;;;;0.60;0.35;;;;;;;;;;5031014;28;20069;-81
2022/07/17 10:56:00;;;;;;;2.35;0.60;;;;;;;;;;5047210;28;20094;-81
2022/07/17 10:58:46;;;;;;;0.57;0.43;;;;;;;;;;5046969;28;20103;-81
2022/07/17 11:01:31;;;;;;;0.90;0.30;;;;;;;;;;5046899;28;20103;-81
2022/07/17 11:04:17;;;;;;;1.13;0.43;;;;;;;;;;5045590;28;20034;-81
2022/07/17 11:07:06;;;;;;;1.65;0.30;;;;;;;;;;5046989;28;20038;-81
2022/07/17 11:09:51;;;;;;;1.20;0.20;;;;;;;;;;5031536;28;20065;-81
2022/07/17 11:12:38;;;;;;;1.27;0.50;;;;;;;;;;5046442;28;20436;-81
2022/07/17 11:15:24;;;;;;;1.48;0.43;;;;;;;;;;5046668;28;20047;-81
2022/07/17 11:18:12;;;;;;;0.95;0.30;;;;;;;;;;5046379;28;20029;-81
2022/07/17 11:21:00;;;;;;;1.77;0.55;;;;;;;;;;5045954;28;20427;-81
2022/07/17 11:23:53;;;;;;;1.00;0.55;;;;;;;;;;5045417;28;20041;-81
2022/07/17 11:26:39;;;;;;;0.93;0.35;;;;;;;;;;5032956;28;20091;-81
2022/07/17 11:29:25;;;;;;;1.20;0.43;;;;;;;;;;5030968;28;20049;-81
2022/07/17 11:32:11;;;;;;;2.55;0.65;;;;;;;;;;5046244;28;20061;-81
2022/07/17 11:34:56;;;;;;;2.05;0.57;;;;;;;;;;5046750;28;20401;-82
2022/07/17 11:37:42;;;;;;;1.80;0.40;;;;;;;;;;5046647;28;20046;-81
2022/07/17 11:40:28;;;;;;;1.55;0.63;;;;;;;;;;5046672;28;20048;-81
2022/07/17 11:43:14;;;;;;;2.60;1.05;;;;;;;;;;5046432;28;20044;-81
2022/07/17 11:46:00;;;;;;;1.40;0.47;;;;;;;;;;5031263;28;20114;-81
2022/07/17 11:48:46;;;;;;;1.52;0.60;;;;;;;;;;5046457;28;20034;-81
2022/07/17 11:51:39;;;;;;;2.58;0.70;;;;;;;;;;5046163;28;20041;-81
2022/07/17 11:54:25;;;;;;;1.13;0.50;;;;;;;;;;5030737;28;20049;-81
2022/07/17 11:57:11;;;;;;;1.85;0.40;;;;;;;;;;5031175;28;20128;-81
2022/07/17 12:00:05;;;;;;;2.15;0.63;;;;;;;;;;5045955;28;20065;-81
2022/07/17 12:03:02;;;;;;;0.73;0.43;;;;;;;;;;5030846;28;20045;-81
2022/07/17 12:05:48;;;;;;;1.38;0.30;;;;;;;;;;5031586;28;20041;-82
2022/07/17 12:08:35;;;;;;;1.20;0.50;;;;;;;;;;5030103;28;20048;-81
2022/07/17 12:11:21;;;;;;;1.05;0.28;;;;;;;;;;5031372;28;20492;-81
2022/07/17 12:14:07;;;;;;;0.80;0.30;;;;;;;;;;5043490;28;20050;-81
2022/07/17 12:16:56;;;;;;;1.38;0.50;;;;;;;;;;5029493;28;20061;-82
2022/07/17 12:19:42;;;;;;;1.95;0.60;;;;;;;;;;5045024;28;20132;-82
2022/07/17 12:22:29;;;;;;;1.85;0.45;;;;;;;;;;5031807;28;20041;-82
2022/07/17 12:25:25;;;;;;;2.28;0.57;;;;;;;;;;5029546;28;20442;-82
2022/07/17 12:28:11;;;;;;;1.83;0.45;;;;;;;;;;5044521;28;20049;-82
2022/07/17 12:30:56;;;;;;;1.05;0.40;;;;;;;;;;5031343;28;20427;-81
2022/07/17 12:33:43;;;;;;;1.70;0.47;;;;;;;;;;5031909;28;20534;-82
2022/07/17 12:36:29;;;;;;;1.90;0.45;;;;;;;;;;5043215;28;20042;-82
2022/07/17 12:39:14;;;;;;;2.17;0.63;;;;;;;;;;5030032;28;20533;-82
2022/07/17 12:42:00;;;;;;;0.82;0.22;;;;;;;;;;5044037;28;20046;-82
2022/07/17 12:44:46;;;;;;;1.83;0.40;;;;;;;;;;5042909;28;20040;-82
2022/07/17 12:47:32;;;;;;;1.45;0.57;;;;;;;;;;5046059;28;20061;-82
2022/07/17 12:50:17;;;;;;;0.68;0.30;;;;;;;;;;5045148;28;20045;-82
2022/07/17 12:53:03;;;;;;;1.35;0.40;;;;;;;;;;5030418;28;20052;-82
2022/07/17 12:55:49;;;;;;;0.88;0.40;;;;;;;;;;5029683;28;20037;-82
2022/07/17 12:58:36;;;;;;;1.05;0.20;;;;;;;;;;5042527;28;20052;-82
2022/07/17 13:01:21;;;;;;;1.83;0.43;;;;;;;;;;5031845;28;20041;-82
2022/07/17 13:04:07;;;;;;;0.60;0.30;;;;;;;;;;5029537;28;20120;-81
2022/07/17 13:06:53;;;;;;;1.42;0.47;;;;;;;;;;5029457;28;20038;-82
2022/07/17 13:09:38;;;;;;;1.92;0.40;;;;;;;;;;5045565;28;20087;-82
2022/07/17 13:12:24;;;;;;;1.88;0.52;;;;;;;;;;5029984;28;20519;-82
2022/07/17 13:15:10;;;;;;;1.02;0.40;;;;;;;;;;5031046;28;20515;-82
2022/07/17 13:17:56;;;;;;;0.88;0.30;;;;;;;;;;5016884;28;20408;-82
2022/07/17 13:20:41;;;;;;;1.17;0.40;;;;;;;;;;5043846;28;20045;-81
2022/07/17 13:23:27;;;;;;;1.42;0.32;;;;;;;;;;5044164;28;20048;-81
2022/07/17 13:26:13;;;;;;;2.35;0.40;;;;;;;;;;5043312;28;20409;-82
2022/07/17 13:28:59;;;;;;;1.15;0.28;;;;;;;;;;5030803;28;20029;-81
2022/07/17 13:31:44;;;;;;;1.80;0.47;;;;;;;;;;5033809;28;20049;-82
2022/07/17 13:34:30;;;;;;;1.40;0.47;;;;;;;;;;5047592;28;20072;-81
2022/07/17 13:37:16;;;;;;;1.02;0.52;;;;;;;;;;5046741;28;20522;-82
2022/07/17 13:40:02;;;;;;;1.75;0.45;;;;;;;;;;5048411;28;20423;-82
2022/07/17 13:42:48;;;;;;;1.02;0.63;;;;;;;;;;5033860;28;20041;-82
2022/07/17 13:45:34;;;;;;;1.95;0.40;;;;;;;;;;5032359;28;20087;-82
2022/07/17 13:48:20;;;;;;;1.10;0.40;;;;;;;;;;5048297;28;20040;-82
2022/07/17 13:51:05;;;;;;;0.80;0.30;;;;;;;;;;5047268;28;20056;-82
2022/07/17 13:53:51;;;;;;;0.77;0.22;;;;;;;;;;5032207;28;20124;-82
2022/07/17 13:56:37;;;;;;;1.77;0.57;;;;;;;;;;5033846;28;20118;-82
2022/07/17 13:59:23;;;;;;;1.35;0.65;;;;;;;;;;5033894;28;20056;-82
2022/07/17 14:02:09;;;;;;;1.70;0.40;;;;;;;;;;5032999;28;20103;-81
2022/07/17 14:04:54;;;;;;;0.82;0.50;;;;;;;;;;5032633;28;20500;-82
2022/07/17 14:07:40;;;;;;;1.10;0.43;;;;;;;;;;5048156;28;20404;-81
2022/07/17 14:10:26;;;;;;;1.50;0.30;;;;;;;;;;5033117;28;20048;-82
2022/07/17 14:13:12;;;;;;;1.17;0.30;;;;;;;;;;5045791;28;20048;-82
2022/07/17 14:15:57;;;;;;;1.77;0.40;;;;;;;;;;5046205;28;20044;-82
2022/07/17 14:18:58;;;;;;;1.00;0.40;;;;;;;;;;5033743;28;20044;-82
2022/07/17 14:21:44;;;;;;;0.60;0.30;;;;;;;;;;5046789;28;20030;-82
2022/07/17 14:24:30;;;;;;;2.03;0.70;;;;;;;;;;5032707;28;20048;-82
2022/07/17 14:27:15;;;;;;;1.85;0.47;;;;;;;;;;5047371;28;20052;-82
2022/07/17 14:30:01;;;;;;;1.08;0.40;;;;;;;;;;5046349;28;20111;-82
2022/07/17 14:32:47;;;;;;;1.35;0.30;;;;;;;;;;5046337;28;20033;-82
2022/07/17 14:35:34;;;;;;;1.45;0.43;;;;;;;;;;5031772;28;20049;-82
2022/07/17 14:38:21;;;;;;;3.08;0.70;;;;;;;;;;5047403;28;20422;-82
2022/07/17 14:41:07;;;;;;;0.68;0.30;;;;;;;;;;5031526;28;20045;-81
2022/07/17 14:43:53;;;;;;;1.70;0.80;;;;;;;;;;5045227;28;20049;-82
2022/07/17 14:46:39;;;;;;;1.27;0.45;;;;;;;;;;5047375;28;20081;-81
2022/07/17 14:49:25;;;;;;;1.50;0.30;;;;;;;;;;5033256;28;20041;-81
2022/07/17 14:52:11;;;;;;;1.73;0.55;;;;;;;;;;5032267;28;20045;-82
2022/07/17 14:54:57;;;;;;;1.13;0.50;;;;;;;;;;5031360;28;20087;-81
2022/07/17 14:57:42;;;;;;;1.95;0.40;;;;;;;;;;5031734;28;20500;-81
2022/07/17 15:00:28;;;;;;;0.95;0.30;;;;;;;;;;5045206;28;20053;-81
2022/07/17 15:03:14;;;;;;;1.15;0.45;;;;;;;;;;5046865;28;20503;-81
2022/07/17 15:06:00;;;;;;;1.58;0.30;;;;;;;;;;5044642;28;20038;-81
2022/07/17 15:08:46;;;;;;;0.70;0.20;;;;;;;;;;5033129;28;20044;-82
2022/07/17 15:11:32;;;;;;;0.90;0.40;;;;;;;;;;5047062;28;20050;-81
2022/07/17 15:14:17;;;;;;;1.02;0.32;;;;;;;;;;5045707;28;20045;-81
2022/07/17 15:17:03;;;;;;;0.98;0.30;;;;;;;;;;5032817;28;20515;-81
2022/07/17 15:19:49;;;;;;;0.47;0.20;;;;;;;;;;5046909;28;20044;-82
2022/07/17 15:22:35;;;;;;;1.67;0.55;;;;;;;;;;5032310;28;20044;-82
2022/07/17 15:25:21;;;;;;;1.23;0.55;;;;;;;;;;5029572;28;20044;-82
2022/07/17 15:28:06;;;;;;;1.05;0.38;;;;;;;;;;5031478;28;20095;-81
2022/07/17 15:30:52;;;;;;;1.63;0.35;;;;;;;;;;5031897;28;20060;-81
2022/07/17 15:33:41;;;;;;;2.28;0.40;;;;;;;;;;5031336;28;20060;-81
2022/07/17 15:36:27;;;;;;;0.80;0.22;;;;;;;;;;5045247;28;20129;-81
2022/07/17 15:39:14;;;;;;;1.52;0.50;;;;;;;;;;5044154;28;20115;-82
2022/07/17 15:41:59;;;;;;;0.65;0.22;;;;;;;;;;5044919;28;20049;-81
2022/07/17 15:44:45;;;;;;;0.40;0.20;;;;;;;;;;5044511;28;20478;-81
2022/07/17 15:47:31;;;;;;;2.13;0.50;;;;;;;;;;5031749;28;20042;-82
2022/07/17 15:50:16;;;;;;;1.40;0.40;;;;;;;;;;5032198;28;20038;-82
2022/07/17 15:53:02;;;;;;;0.90;0.30;;;;;;;;;;5030292;28;20044;-82
2022/07/17 15:55:49;;;;;;;0.88;0.28;;;;;;;;;;5045961;28;20033;-81
2022/07/17 15:58:35;;;;;;;1.42;0.60;;;;;;;;;;5017894;28;20038;-82
2022/07/17 16:01:21;;;;;;;0.63;0.20;;;;;;;;;;5044856;28;20041;-81
2022/07/17 16:04:07;;;;;;;1.60;0.30;;;;;;;;;;5043750;28;20053;-82
2022/07/17 16:06:53;;;;;;;1.35;0.30;;;;;;;;;;5031155;28;20049;-81
2022/07/17 16:09:40;;;;;;;1.17;0.30;;;;;;;;;;5046397;28;20045;-81
2022/07/17 16:12:26;;;;;;;1.40;0.95;;;;;;;;;;5045816;28;20140;-81
2022/07/17 16:15:12;;;;;;;0.68;0.30;;;;;;;;;;5045776;28;20069;-81
2022/07/17 16:17:58;;;;;;;2.50;0.47;;;;;;;;;;5031830;28;20045;-81
2022/07/17 16:20:44;;;;;;;1.02;0.25;;;;;;;;;;5045903;28;20044;-81
2022/07/17 16:23:29;;;;;;;1.13;0.40;;;;;;;;;;5043879;28;20495;-81
2022/07/17 16:26:15;;;;;;;1.00;0.30;;;;;;;;;;5045763;28;20136;-81
2022/07/17 16:29:01;;;;;;;0.50;0.20;;;;;;;;;;5045688;28;20041;-81
2022/07/17 16:31:47;;;;;;;1.02;0.40;;;;;;;;;;5044024;28;20049;-81
2022/07/17 16:34:32;;;;;;;1.20;0.43;;;;;;;;;;5030084;28;20045;-81
2022/07/17 16:37:18;;;;;;;1.58;0.70;;;;;;;;;;5045063;28;20040;-81
2022/07/17 16:40:04;;;;;;;1.92;0.60;;;;;;;;;;5031596;28;20042;-81